sensor_id;sensor_type;location;lat;lon;timestamp;P1;durP1;ratioP1;P2;durP2;ratioP2
11024;SDS011;22890;51.820;8.682;2024-01-06T00:01:28;6.33;;;5.10;;
11024;SDS011;22890;51.820;8.682;2024-01-06T00:03:55;7.30;;;5.57;;
11024;SDS011;22890;51.820;8.682;2024-01-06T00:06:23;6.93;;;5.73;;
11024;SDS011;22890;51.820;8.682;2024-01-06T00:08:50;8.30;;;5.73;;
11024;SDS011;22890;51.820;8.682;2024-01-06T00:11:20;6.50;;;5.20;;
11024;SDS011;22890;51.820;8.682;2024-01-06T00:13:47;9.13;;;6.27;;
11024;SDS011;22890;51.820;8.682;2024-01-06T00:16:18;8.77;;;6.03;;
11024;SDS011;22890;51.820;8.682;2024-01-06T00:18:46;7.10;;;5.93;;
11024;SDS011;22890;51.820;8.682;2024-01-06T00:21:13;9.23;;;5.50;;
11024;SDS011;22890;51.820;8.682;2024-01-06T00:23:40;8.40;;;6.50;;
11024;SDS011;22890;51.820;8.682;2024-01-06T00:26:07;8.37;;;6.53;;
11024;SDS011;22890;51.820;8.682;2024-01-06T00:28:35;9.57;;;6.80;;
11024;SDS011;22890;51.820;8.682;2024-01-06T00:31:02;8.27;;;6.50;;
11024;SDS011;22890;51.820;8.682;2024-01-06T00:33:29;8.20;;;6.30;;
11024;SDS011;22890;51.820;8.682;2024-01-06T00:35:56;7.77;;;6.57;;
11024;SDS011;22890;51.820;8.682;2024-01-06T00:38:24;8.00;;;6.33;;
11024;SDS011;22890;51.820;8.682;2024-01-06T00:40:51;9.73;;;6.50;;
11024;SDS011;22890;51.820;8.682;2024-01-06T00:43:18;8.87;;;6.37;;
11024;SDS011;22890;51.820;8.682;2024-01-06T00:45:45;8.17;;;6.37;;
11024;SDS011;22890;51.820;8.682;2024-01-06T00:48:12;8.87;;;6.73;;
11024;SDS011;22890;51.820;8.682;2024-01-06T00:50:39;7.77;;;5.87;;
11024;SDS011;22890;51.820;8.682;2024-01-06T00:53:06;8.87;;;6.20;;
11024;SDS011;22890;51.820;8.682;2024-01-06T00:55:33;8.57;;;6.53;;
11024;SDS011;22890;51.820;8.682;2024-01-06T00:58:00;8.00;;;5.97;;
11024;SDS011;22890;51.820;8.682;2024-01-06T01:00:27;8.17;;;6.40;;
11024;SDS011;22890;51.820;8.682;2024-01-06T01:02:54;8.63;;;6.03;;
11024;SDS011;22890;51.820;8.682;2024-01-06T01:05:21;10.87;;;6.60;;
11024;SDS011;22890;51.820;8.682;2024-01-06T01:07:48;9.07;;;6.33;;
11024;SDS011;22890;51.820;8.682;2024-01-06T01:10:16;9.53;;;6.67;;
11024;SDS011;22890;51.820;8.682;2024-01-06T01:12:42;10.03;;;6.33;;
11024;SDS011;22890;51.820;8.682;2024-01-06T01:15:09;9.10;;;6.00;;
11024;SDS011;22890;51.820;8.682;2024-01-06T01:17:37;9.10;;;6.73;;
11024;SDS011;22890;51.820;8.682;2024-01-06T01:20:04;7.97;;;6.10;;
11024;SDS011;22890;51.820;8.682;2024-01-06T01:22:32;7.40;;;5.70;;
11024;SDS011;22890;51.820;8.682;2024-01-06T01:24:58;8.70;;;6.10;;
11024;SDS011;22890;51.820;8.682;2024-01-06T01:27:31;8.57;;;6.30;;
11024;SDS011;22890;51.820;8.682;2024-01-06T01:29:58;6.50;;;5.57;;
11024;SDS011;22890;51.820;8.682;2024-01-06T01:32:25;9.97;;;6.57;;
11024;SDS011;22890;51.820;8.682;2024-01-06T01:34:53;9.67;;;6.20;;
11024;SDS011;22890;51.820;8.682;2024-01-06T01:37:21;7.67;;;5.93;;
11024;SDS011;22890;51.820;8.682;2024-01-06T01:39:48;9.43;;;6.50;;
11024;SDS011;22890;51.820;8.682;2024-01-06T01:42:14;9.70;;;6.47;;
11024;SDS011;22890;51.820;8.682;2024-01-06T01:44:42;13.37;;;6.97;;
11024;SDS011;22890;51.820;8.682;2024-01-06T01:47:09;9.87;;;6.83;;
11024;SDS011;22890;51.820;8.682;2024-01-06T01:49:36;9.77;;;7.00;;
11024;SDS011;22890;51.820;8.682;2024-01-06T01:52:04;11.20;;;7.10;;
11024;SDS011;22890;51.820;8.682;2024-01-06T01:54:31;9.87;;;6.67;;
11024;SDS011;22890;51.820;8.682;2024-01-06T01:56:58;9.77;;;6.33;;
11024;SDS011;22890;51.820;8.682;2024-01-06T01:59:26;10.90;;;7.50;;
11024;SDS011;22890;51.820;8.682;2024-01-06T02:01:53;10.33;;;6.53;;
11024;SDS011;22890;51.820;8.682;2024-01-06T02:04:20;10.03;;;6.90;;
11024;SDS011;22890;51.820;8.682;2024-01-06T02:06:47;11.03;;;7.37;;
11024;SDS011;22890;51.820;8.682;2024-01-06T02:09:15;13.57;;;7.40;;
11024;SDS011;22890;51.820;8.682;2024-01-06T02:11:42;13.17;;;7.37;;
11024;SDS011;22890;51.820;8.682;2024-01-06T02:14:09;11.10;;;6.27;;
11024;SDS011;22890;51.820;8.682;2024-01-06T02:16:36;10.90;;;7.23;;
11024;SDS011;22890;51.820;8.682;2024-01-06T02:19:03;14.13;;;7.83;;
11024;SDS011;22890;51.820;8.682;2024-01-06T02:21:30;12.20;;;8.13;;
11024;SDS011;22890;51.820;8.682;2024-01-06T02:23:59;10.80;;;7.43;;
11024;SDS011;22890;51.820;8.682;2024-01-06T02:26:27;12.47;;;7.90;;
11024;SDS011;22890;51.820;8.682;2024-01-06T02:28:54;11.83;;;7.33;;
11024;SDS011;22890;51.820;8.682;2024-01-06T02:31:21;12.43;;;7.83;;
11024;SDS011;22890;51.820;8.682;2024-01-06T02:33:48;13.30;;;8.27;;
11024;SDS011;22890;51.820;8.682;2024-01-06T02:36:16;11.30;;;7.20;;
11024;SDS011;22890;51.820;8.682;2024-01-06T02:38:43;10.97;;;7.20;;
11024;SDS011;22890;51.820;8.682;2024-01-06T02:41:10;10.63;;;6.83;;
11024;SDS011;22890;51.820;8.682;2024-01-06T02:43:37;14.03;;;8.47;;
11024;SDS011;22890;51.820;8.682;2024-01-06T02:46:04;11.50;;;7.23;;
11024;SDS011;22890;51.820;8.682;2024-01-06T02:48:31;11.47;;;7.50;;
11024;SDS011;22890;51.820;8.682;2024-01-06T02:50:58;9.40;;;6.83;;
11024;SDS011;22890;51.820;8.682;2024-01-06T02:53:25;13.90;;;8.43;;
11024;SDS011;22890;51.820;8.682;2024-01-06T02:55:52;12.60;;;7.90;;
11024;SDS011;22890;51.820;8.682;2024-01-06T02:58:19;11.07;;;6.93;;
11024;SDS011;22890;51.820;8.682;2024-01-06T03:00:46;11.93;;;8.07;;
11024;SDS011;22890;51.820;8.682;2024-01-06T03:03:14;12.70;;;9.00;;
11024;SDS011;22890;51.820;8.682;2024-01-06T03:05:41;13.13;;;8.40;;
11024;SDS011;22890;51.820;8.682;2024-01-06T03:08:08;12.20;;;8.37;;
11024;SDS011;22890;51.820;8.682;2024-01-06T03:10:35;14.77;;;8.07;;
11024;SDS011;22890;51.820;8.682;2024-01-06T03:13:02;13.57;;;8.93;;
11024;SDS011;22890;51.820;8.682;2024-01-06T03:15:29;11.40;;;8.27;;
11024;SDS011;22890;51.820;8.682;2024-01-06T03:17:57;14.00;;;8.47;;
11024;SDS011;22890;51.820;8.682;2024-01-06T03:20:23;14.37;;;8.23;;
11024;SDS011;22890;51.820;8.682;2024-01-06T03:22:50;11.83;;;8.47;;
11024;SDS011;22890;51.820;8.682;2024-01-06T03:25:17;11.80;;;8.10;;
11024;SDS011;22890;51.820;8.682;2024-01-06T03:27:45;10.50;;;7.37;;
11024;SDS011;22890;51.820;8.682;2024-01-06T03:30:12;10.93;;;7.83;;
11024;SDS011;22890;51.820;8.682;2024-01-06T03:32:39;12.47;;;7.73;;
11024;SDS011;22890;51.820;8.682;2024-01-06T03:35:06;11.67;;;7.90;;
11024;SDS011;22890;51.820;8.682;2024-01-06T03:37:34;10.43;;;7.43;;
11024;SDS011;22890;51.820;8.682;2024-01-06T03:40:01;10.50;;;7.23;;
11024;SDS011;22890;51.820;8.682;2024-01-06T03:42:29;11.17;;;7.60;;
11024;SDS011;22890;51.820;8.682;2024-01-06T03:44:55;12.03;;;7.53;;
11024;SDS011;22890;51.820;8.682;2024-01-06T03:47:22;11.43;;;7.73;;
11024;SDS011;22890;51.820;8.682;2024-01-06T03:49:50;12.03;;;7.93;;
11024;SDS011;22890;51.820;8.682;2024-01-06T03:52:16;10.63;;;7.17;;
11024;SDS011;22890;51.820;8.682;2024-01-06T03:54:44;10.53;;;7.27;;
11024;SDS011;22890;51.820;8.682;2024-01-06T03:57:11;11.27;;;7.63;;
11024;SDS011;22890;51.820;8.682;2024-01-06T03:59:38;11.50;;;7.63;;
11024;SDS011;22890;51.820;8.682;2024-01-06T04:02:05;11.67;;;8.00;;
11024;SDS011;22890;51.820;8.682;2024-01-06T04:04:32;10.33;;;7.37;;
11024;SDS011;22890;51.820;8.682;2024-01-06T04:06:59;11.17;;;8.00;;
11024;SDS011;22890;51.820;8.682;2024-01-06T04:09:27;12.27;;;8.23;;
11024;SDS011;22890;51.820;8.682;2024-01-06T04:11:54;11.50;;;8.27;;
11024;SDS011;22890;51.820;8.682;2024-01-06T04:14:22;11.17;;;7.30;;
11024;SDS011;22890;51.820;8.682;2024-01-06T04:16:48;11.40;;;8.00;;
11024;SDS011;22890;51.820;8.682;2024-01-06T04:19:15;10.73;;;7.90;;
11024;SDS011;22890;51.820;8.682;2024-01-06T04:21:42;12.43;;;7.93;;
11024;SDS011;22890;51.820;8.682;2024-01-06T04:24:10;10.87;;;7.30;;
11024;SDS011;22890;51.820;8.682;2024-01-06T04:26:37;10.33;;;7.13;;
11024;SDS011;22890;51.820;8.682;2024-01-06T04:29:04;11.93;;;7.83;;
11024;SDS011;22890;51.820;8.682;2024-01-06T04:31:31;13.73;;;8.37;;
11024;SDS011;22890;51.820;8.682;2024-01-06T04:33:59;13.67;;;8.40;;
11024;SDS011;22890;51.820;8.682;2024-01-06T04:36:25;12.30;;;8.93;;
11024;SDS011;22890;51.820;8.682;2024-01-06T04:38:53;10.57;;;7.83;;
11024;SDS011;22890;51.820;8.682;2024-01-06T04:41:19;12.07;;;8.33;;
11024;SDS011;22890;51.820;8.682;2024-01-06T04:43:47;11.10;;;7.67;;
11024;SDS011;22890;51.820;8.682;2024-01-06T04:46:13;11.67;;;7.90;;
11024;SDS011;22890;51.820;8.682;2024-01-06T04:48:41;13.20;;;8.80;;
11024;SDS011;22890;51.820;8.682;2024-01-06T04:51:10;14.03;;;8.20;;
11024;SDS011;22890;51.820;8.682;2024-01-06T04:53:38;12.07;;;7.63;;
11024;SDS011;22890;51.820;8.682;2024-01-06T04:56:05;13.80;;;8.83;;
11024;SDS011;22890;51.820;8.682;2024-01-06T04:58:32;10.83;;;8.20;;
11024;SDS011;22890;51.820;8.682;2024-01-06T05:01:00;14.40;;;8.80;;
11024;SDS011;22890;51.820;8.682;2024-01-06T05:03:28;14.93;;;8.70;;
11024;SDS011;22890;51.820;8.682;2024-01-06T05:05:56;13.73;;;9.37;;
11024;SDS011;22890;51.820;8.682;2024-01-06T05:08:23;13.13;;;8.33;;
11024;SDS011;22890;51.820;8.682;2024-01-06T05:10:51;12.90;;;8.37;;
11024;SDS011;22890;51.820;8.682;2024-01-06T05:13:18;14.07;;;9.17;;
11024;SDS011;22890;51.820;8.682;2024-01-06T05:15:45;13.40;;;9.23;;
11024;SDS011;22890;51.820;8.682;2024-01-06T05:18:13;12.23;;;8.03;;
11024;SDS011;22890;51.820;8.682;2024-01-06T05:20:40;16.30;;;9.10;;
11024;SDS011;22890;51.820;8.682;2024-01-06T05:23:07;13.57;;;8.73;;
11024;SDS011;22890;51.820;8.682;2024-01-06T05:25:34;15.27;;;9.50;;
11024;SDS011;22890;51.820;8.682;2024-01-06T05:28:01;17.43;;;10.50;;
11024;SDS011;22890;51.820;8.682;2024-01-06T05:30:28;13.57;;;8.37;;
11024;SDS011;22890;51.820;8.682;2024-01-06T05:32:55;16.57;;;9.90;;
11024;SDS011;22890;51.820;8.682;2024-01-06T05:35:22;15.13;;;9.67;;
11024;SDS011;22890;51.820;8.682;2024-01-06T05:37:49;15.33;;;9.30;;
11024;SDS011;22890;51.820;8.682;2024-01-06T05:40:16;17.87;;;11.60;;
11024;SDS011;22890;51.820;8.682;2024-01-06T05:42:43;14.63;;;10.33;;
11024;SDS011;22890;51.820;8.682;2024-01-06T05:45:11;16.80;;;10.80;;
11024;SDS011;22890;51.820;8.682;2024-01-06T05:47:41;17.43;;;10.77;;
11024;SDS011;22890;51.820;8.682;2024-01-06T05:50:08;17.50;;;10.43;;
11024;SDS011;22890;51.820;8.682;2024-01-06T05:52:37;17.83;;;11.30;;
11024;SDS011;22890;51.820;8.682;2024-01-06T05:55:04;18.33;;;9.53;;
11024;SDS011;22890;51.820;8.682;2024-01-06T05:57:31;17.10;;;10.43;;
11024;SDS011;22890;51.820;8.682;2024-01-06T05:59:59;18.20;;;10.80;;
11024;SDS011;22890;51.820;8.682;2024-01-06T06:02:26;19.10;;;11.23;;
11024;SDS011;22890;51.820;8.682;2024-01-06T06:04:53;16.80;;;10.40;;
11024;SDS011;22890;51.820;8.682;2024-01-06T06:07:20;17.60;;;10.57;;
11024;SDS011;22890;51.820;8.682;2024-01-06T06:09:47;16.27;;;9.53;;
11024;SDS011;22890;51.820;8.682;2024-01-06T06:12:15;19.53;;;10.50;;
11024;SDS011;22890;51.820;8.682;2024-01-06T06:14:42;15.97;;;9.10;;
11024;SDS011;22890;51.820;8.682;2024-01-06T06:17:09;15.63;;;8.87;;
11024;SDS011;22890;51.820;8.682;2024-01-06T06:19:36;16.20;;;9.07;;
11024;SDS011;22890;51.820;8.682;2024-01-06T06:22:04;15.00;;;8.17;;
11024;SDS011;22890;51.820;8.682;2024-01-06T06:24:30;15.03;;;8.93;;
11024;SDS011;22890;51.820;8.682;2024-01-06T06:26:58;14.47;;;7.77;;
11024;SDS011;22890;51.820;8.682;2024-01-06T06:29:25;14.27;;;8.03;;
11024;SDS011;22890;51.820;8.682;2024-01-06T06:31:52;15.23;;;8.77;;
11024;SDS011;22890;51.820;8.682;2024-01-06T06:34:19;13.47;;;8.47;;
11024;SDS011;22890;51.820;8.682;2024-01-06T06:36:47;15.63;;;9.47;;
11024;SDS011;22890;51.820;8.682;2024-01-06T06:39:14;13.87;;;8.70;;
11024;SDS011;22890;51.820;8.682;2024-01-06T06:41:42;15.10;;;8.37;;
11024;SDS011;22890;51.820;8.682;2024-01-06T06:44:09;15.47;;;8.23;;
11024;SDS011;22890;51.820;8.682;2024-01-06T06:46:36;14.17;;;8.27;;
11024;SDS011;22890;51.820;8.682;2024-01-06T06:49:04;14.13;;;8.17;;
11024;SDS011;22890;51.820;8.682;2024-01-06T06:51:31;13.17;;;8.00;;
11024;SDS011;22890;51.820;8.682;2024-01-06T06:53:58;17.03;;;8.50;;
11024;SDS011;22890;51.820;8.682;2024-01-06T06:56:25;12.70;;;8.27;;
11024;SDS011;22890;51.820;8.682;2024-01-06T06:58:52;15.33;;;7.77;;
11024;SDS011;22890;51.820;8.682;2024-01-06T07:01:19;14.97;;;8.30;;
11024;SDS011;22890;51.820;8.682;2024-01-06T07:03:46;15.57;;;8.63;;
11024;SDS011;22890;51.820;8.682;2024-01-06T07:06:14;15.63;;;8.40;;
11024;SDS011;22890;51.820;8.682;2024-01-06T07:08:42;13.63;;;8.13;;
11024;SDS011;22890;51.820;8.682;2024-01-06T07:11:09;15.23;;;8.50;;
11024;SDS011;22890;51.820;8.682;2024-01-06T07:13:37;14.57;;;7.53;;
11024;SDS011;22890;51.820;8.682;2024-01-06T07:16:05;16.00;;;9.27;;
11024;SDS011;22890;51.820;8.682;2024-01-06T07:18:44;15.27;;;8.30;;
11024;SDS011;22890;51.820;8.682;2024-01-06T07:21:12;16.80;;;8.00;;
11024;SDS011;22890;51.820;8.682;2024-01-06T07:23:39;17.83;;;9.27;;
11024;SDS011;22890;51.820;8.682;2024-01-06T07:26:06;19.90;;;8.77;;
11024;SDS011;22890;51.820;8.682;2024-01-06T07:28:34;14.90;;;8.07;;
11024;SDS011;22890;51.820;8.682;2024-01-06T07:31:01;14.83;;;7.83;;
11024;SDS011;22890;51.820;8.682;2024-01-06T07:33:29;14.40;;;8.13;;
11024;SDS011;22890;51.820;8.682;2024-01-06T07:35:56;13.90;;;8.17;;
11024;SDS011;22890;51.820;8.682;2024-01-06T07:38:22;15.40;;;8.30;;
11024;SDS011;22890;51.820;8.682;2024-01-06T07:40:49;12.87;;;7.60;;
11024;SDS011;22890;51.820;8.682;2024-01-06T07:43:17;14.77;;;8.63;;
11024;SDS011;22890;51.820;8.682;2024-01-06T07:45:44;16.07;;;8.30;;
11024;SDS011;22890;51.820;8.682;2024-01-06T07:48:11;18.80;;;8.90;;
11024;SDS011;22890;51.820;8.682;2024-01-06T07:50:38;13.37;;;7.77;;
11024;SDS011;22890;51.820;8.682;2024-01-06T07:53:06;17.93;;;8.27;;
11024;SDS011;22890;51.820;8.682;2024-01-06T07:55:32;17.30;;;10.00;;
11024;SDS011;22890;51.820;8.682;2024-01-06T07:57:59;16.30;;;9.23;;
11024;SDS011;22890;51.820;8.682;2024-01-06T08:00:27;14.50;;;8.87;;
11024;SDS011;22890;51.820;8.682;2024-01-06T08:02:54;17.73;;;9.60;;
11024;SDS011;22890;51.820;8.682;2024-01-06T08:05:21;17.97;;;9.63;;
11024;SDS011;22890;51.820;8.682;2024-01-06T08:07:49;16.83;;;8.80;;
11024;SDS011;22890;51.820;8.682;2024-01-06T08:10:16;16.43;;;9.10;;
11024;SDS011;22890;51.820;8.682;2024-01-06T08:12:43;17.60;;;9.10;;
11024;SDS011;22890;51.820;8.682;2024-01-06T08:15:10;14.87;;;7.83;;
11024;SDS011;22890;51.820;8.682;2024-01-06T08:17:37;12.73;;;7.17;;
11024;SDS011;22890;51.820;8.682;2024-01-06T08:20:07;14.83;;;7.97;;
11024;SDS011;22890;51.820;8.682;2024-01-06T08:22:34;15.37;;;7.90;;
11024;SDS011;22890;51.820;8.682;2024-01-06T08:25:01;15.83;;;8.00;;
11024;SDS011;22890;51.820;8.682;2024-01-06T08:27:29;13.57;;;7.37;;
11024;SDS011;22890;51.820;8.682;2024-01-06T08:29:56;18.03;;;8.23;;
11024;SDS011;22890;51.820;8.682;2024-01-06T08:32:23;14.70;;;7.77;;
11024;SDS011;22890;51.820;8.682;2024-01-06T08:34:50;14.13;;;7.97;;
11024;SDS011;22890;51.820;8.682;2024-01-06T08:37:18;13.70;;;7.73;;
11024;SDS011;22890;51.820;8.682;2024-01-06T08:39:45;14.90;;;8.33;;
11024;SDS011;22890;51.820;8.682;2024-01-06T08:42:13;17.87;;;8.20;;
11024;SDS011;22890;51.820;8.682;2024-01-06T08:44:40;13.20;;;7.40;;
11024;SDS011;22890;51.820;8.682;2024-01-06T08:47:09;11.50;;;6.70;;
11024;SDS011;22890;51.820;8.682;2024-01-06T08:49:36;14.40;;;7.43;;
11024;SDS011;22890;51.820;8.682;2024-01-06T08:52:03;15.80;;;8.10;;
11024;SDS011;22890;51.820;8.682;2024-01-06T08:54:31;14.37;;;8.10;;
11024;SDS011;22890;51.820;8.682;2024-01-06T08:56:58;14.50;;;7.53;;
11024;SDS011;22890;51.820;8.682;2024-01-06T08:59:25;11.00;;;7.00;;
11024;SDS011;22890;51.820;8.682;2024-01-06T09:01:52;14.00;;;6.90;;
11024;SDS011;22890;51.820;8.682;2024-01-06T09:04:19;15.03;;;7.17;;
11024;SDS011;22890;51.820;8.682;2024-01-06T09:06:47;14.10;;;8.03;;
11024;SDS011;22890;51.820;8.682;2024-01-06T09:09:14;13.00;;;6.90;;
11024;SDS011;22890;51.820;8.682;2024-01-06T09:11:41;12.83;;;7.80;;
11024;SDS011;22890;51.820;8.682;2024-01-06T09:14:10;13.50;;;7.53;;
11024;SDS011;22890;51.820;8.682;2024-01-06T09:16:37;12.37;;;7.67;;
11024;SDS011;22890;51.820;8.682;2024-01-06T09:19:04;14.20;;;7.73;;
11024;SDS011;22890;51.820;8.682;2024-01-06T09:21:31;13.13;;;8.00;;
11024;SDS011;22890;51.820;8.682;2024-01-06T09:23:58;15.33;;;8.93;;
11024;SDS011;22890;51.820;8.682;2024-01-06T09:26:32;15.90;;;8.83;;
11024;SDS011;22890;51.820;8.682;2024-01-06T09:29:00;15.57;;;7.93;;
11024;SDS011;22890;51.820;8.682;2024-01-06T09:31:27;13.20;;;7.07;;
11024;SDS011;22890;51.820;8.682;2024-01-06T09:33:55;14.80;;;8.50;;
11024;SDS011;22890;51.820;8.682;2024-01-06T09:36:22;14.30;;;8.10;;
11024;SDS011;22890;51.820;8.682;2024-01-06T09:38:49;15.30;;;7.07;;
11024;SDS011;22890;51.820;8.682;2024-01-06T09:41:16;12.67;;;6.50;;
11024;SDS011;22890;51.820;8.682;2024-01-06T09:43:43;14.80;;;6.70;;
11024;SDS011;22890;51.820;8.682;2024-01-06T09:46:13;15.00;;;7.57;;
11024;SDS011;22890;51.820;8.682;2024-01-06T09:48:43;11.63;;;6.77;;
11024;SDS011;22890;51.820;8.682;2024-01-06T09:51:13;12.03;;;8.97;;
11024;SDS011;22890;51.820;8.682;2024-01-06T09:53:43;10.47;;;5.57;;
11024;SDS011;22890;51.820;8.682;2024-01-06T09:56:15;13.03;;;6.13;;
11024;SDS011;22890;51.820;8.682;2024-01-06T09:58:43;23.93;;;13.87;;
11024;SDS011;22890;51.820;8.682;2024-01-06T10:01:11;10.57;;;5.77;;
11024;SDS011;22890;51.820;8.682;2024-01-06T10:03:38;9.83;;;6.03;;
11024;SDS011;22890;51.820;8.682;2024-01-06T10:06:06;9.53;;;5.50;;
11024;SDS011;22890;51.820;8.682;2024-01-06T10:08:34;9.20;;;4.90;;
11024;SDS011;22890;51.820;8.682;2024-01-06T10:11:01;9.77;;;6.10;;
11024;SDS011;22890;51.820;8.682;2024-01-06T10:13:28;8.77;;;5.50;;
11024;SDS011;22890;51.820;8.682;2024-01-06T10:15:56;8.33;;;5.37;;
11024;SDS011;22890;51.820;8.682;2024-01-06T10:18:24;7.77;;;5.30;;
11024;SDS011;22890;51.820;8.682;2024-01-06T10:20:53;8.47;;;5.43;;
11024;SDS011;22890;51.820;8.682;2024-01-06T10:23:21;7.80;;;5.23;;
11024;SDS011;22890;51.820;8.682;2024-01-06T10:25:53;20.27;;;12.33;;
11024;SDS011;22890;51.820;8.682;2024-01-06T10:28:24;10.27;;;5.97;;
11024;SDS011;22890;51.820;8.682;2024-01-06T10:30:51;12.70;;;7.20;;
11024;SDS011;22890;51.820;8.682;2024-01-06T10:33:20;19.60;;;9.80;;
11024;SDS011;22890;51.820;8.682;2024-01-06T10:35:47;20.07;;;8.77;;
11024;SDS011;22890;51.820;8.682;2024-01-06T10:38:15;23.87;;;12.13;;
11024;SDS011;22890;51.820;8.682;2024-01-06T10:41:01;20.27;;;11.23;;
11024;SDS011;22890;51.820;8.682;2024-01-06T10:43:34;18.30;;;10.07;;
11024;SDS011;22890;51.820;8.682;2024-01-06T10:46:04;18.77;;;9.33;;
11024;SDS011;22890;51.820;8.682;2024-01-06T10:48:32;18.23;;;9.07;;
11024;SDS011;22890;51.820;8.682;2024-01-06T10:51:05;16.37;;;8.27;;
11024;SDS011;22890;51.820;8.682;2024-01-06T10:53:34;12.97;;;7.47;;
11024;SDS011;22890;51.820;8.682;2024-01-06T10:56:03;13.47;;;7.27;;
11024;SDS011;22890;51.820;8.682;2024-01-06T10:58:31;16.00;;;7.57;;
11024;SDS011;22890;51.820;8.682;2024-01-06T11:01:00;12.77;;;7.23;;
11024;SDS011;22890;51.820;8.682;2024-01-06T11:03:27;13.50;;;7.10;;
11024;SDS011;22890;51.820;8.682;2024-01-06T11:05:56;13.87;;;6.57;;
11024;SDS011;22890;51.820;8.682;2024-01-06T11:08:25;13.77;;;7.03;;
11024;SDS011;22890;51.820;8.682;2024-01-06T11:10:52;14.27;;;7.33;;
11024;SDS011;22890;51.820;8.682;2024-01-06T11:13:23;13.83;;;7.67;;
11024;SDS011;22890;51.820;8.682;2024-01-06T11:15:50;13.50;;;7.93;;
11024;SDS011;22890;51.820;8.682;2024-01-06T11:18:30;15.63;;;7.50;;
11024;SDS011;22890;51.820;8.682;2024-01-06T11:23:39;16.03;;;7.43;;
11024;SDS011;22890;51.820;8.682;2024-01-06T11:26:07;12.60;;;7.40;;
11024;SDS011;22890;51.820;8.682;2024-01-06T11:28:43;13.80;;;7.77;;
11024;SDS011;22890;51.820;8.682;2024-01-06T11:31:11;17.13;;;8.07;;
11024;SDS011;22890;51.820;8.682;2024-01-06T11:33:42;17.07;;;8.07;;
11024;SDS011;22890;51.820;8.682;2024-01-06T11:36:10;15.63;;;8.33;;
11024;SDS011;22890;51.820;8.682;2024-01-06T11:38:37;13.57;;;7.73;;
11024;SDS011;22890;51.820;8.682;2024-01-06T11:41:08;12.93;;;8.30;;
11024;SDS011;22890;51.820;8.682;2024-01-06T11:43:38;16.53;;;8.20;;
11024;SDS011;22890;51.820;8.682;2024-01-06T11:46:08;18.37;;;8.33;;
11024;SDS011;22890;51.820;8.682;2024-01-06T11:48:35;16.80;;;8.33;;
11024;SDS011;22890;51.820;8.682;2024-01-06T11:51:03;19.03;;;8.53;;
11024;SDS011;22890;51.820;8.682;2024-01-06T11:53:31;14.73;;;7.53;;
11024;SDS011;22890;51.820;8.682;2024-01-06T11:55:59;18.60;;;7.97;;
11024;SDS011;22890;51.820;8.682;2024-01-06T11:58:26;18.20;;;8.37;;
11024;SDS011;22890;51.820;8.682;2024-01-06T12:00:55;16.73;;;7.57;;
11024;SDS011;22890;51.820;8.682;2024-01-06T12:03:23;14.10;;;7.73;;
11024;SDS011;22890;51.820;8.682;2024-01-06T12:05:59;15.37;;;7.30;;
11024;SDS011;22890;51.820;8.682;2024-01-06T12:08:28;18.67;;;7.13;;
11024;SDS011;22890;51.820;8.682;2024-01-06T12:11:02;17.77;;;8.47;;
11024;SDS011;22890;51.820;8.682;2024-01-06T12:13:29;15.40;;;7.13;;
11024;SDS011;22890;51.820;8.682;2024-01-06T12:15:56;13.33;;;7.93;;
11024;SDS011;22890;51.820;8.682;2024-01-06T12:18:24;10.70;;;5.57;;
11024;SDS011;22890;51.820;8.682;2024-01-06T12:20:52;11.20;;;5.53;;
11024;SDS011;22890;51.820;8.682;2024-01-06T12:23:28;8.03;;;4.50;;
11024;SDS011;22890;51.820;8.682;2024-01-06T12:25:55;7.97;;;4.90;;
11024;SDS011;22890;51.820;8.682;2024-01-06T12:28:22;13.23;;;5.80;;
11024;SDS011;22890;51.820;8.682;2024-01-06T12:30:49;11.87;;;5.47;;
11024;SDS011;22890;51.820;8.682;2024-01-06T12:33:17;8.60;;;5.40;;
11024;SDS011;22890;51.820;8.682;2024-01-06T12:35:44;10.43;;;5.27;;
11024;SDS011;22890;51.820;8.682;2024-01-06T12:38:11;11.03;;;5.40;;
11024;SDS011;22890;51.820;8.682;2024-01-06T12:40:38;9.30;;;5.70;;
11024;SDS011;22890;51.820;8.682;2024-01-06T12:43:07;10.23;;;5.40;;
11024;SDS011;22890;51.820;8.682;2024-01-06T12:45:34;8.77;;;4.90;;
11024;SDS011;22890;51.820;8.682;2024-01-06T12:48:01;13.10;;;5.27;;
11024;SDS011;22890;51.820;8.682;2024-01-06T12:50:29;10.73;;;6.00;;
11024;SDS011;22890;51.820;8.682;2024-01-06T12:52:55;13.67;;;6.37;;
11024;SDS011;22890;51.820;8.682;2024-01-06T12:55:22;11.83;;;6.40;;
11024;SDS011;22890;51.820;8.682;2024-01-06T12:57:49;12.60;;;6.77;;
11024;SDS011;22890;51.820;8.682;2024-01-06T13:00:17;12.37;;;6.20;;
11024;SDS011;22890;51.820;8.682;2024-01-06T13:02:44;10.00;;;6.20;;
11024;SDS011;22890;51.820;8.682;2024-01-06T13:05:11;11.77;;;7.17;;
11024;SDS011;22890;51.820;8.682;2024-01-06T13:07:38;11.23;;;5.90;;
11024;SDS011;22890;51.820;8.682;2024-01-06T13:10:06;29.03;;;23.20;;
11024;SDS011;22890;51.820;8.682;2024-01-06T13:12:33;10.37;;;5.10;;
11024;SDS011;22890;51.820;8.682;2024-01-06T13:15:00;12.23;;;6.27;;
11024;SDS011;22890;51.820;8.682;2024-01-06T13:17:28;8.93;;;5.57;;
11024;SDS011;22890;51.820;8.682;2024-01-06T13:19:55;10.73;;;5.40;;
11024;SDS011;22890;51.820;8.682;2024-01-06T13:22:22;11.07;;;5.77;;
11024;SDS011;22890;51.820;8.682;2024-01-06T13:24:50;9.87;;;5.13;;
11024;SDS011;22890;51.820;8.682;2024-01-06T13:27:19;8.77;;;5.17;;
11024;SDS011;22890;51.820;8.682;2024-01-06T13:29:46;7.90;;;5.03;;
11024;SDS011;22890;51.820;8.682;2024-01-06T13:32:14;8.00;;;5.40;;
11024;SDS011;22890;51.820;8.682;2024-01-06T13:34:41;9.97;;;5.20;;
11024;SDS011;22890;51.820;8.682;2024-01-06T13:37:08;10.20;;;5.50;;
11024;SDS011;22890;51.820;8.682;2024-01-06T13:39:36;10.73;;;6.70;;
11024;SDS011;22890;51.820;8.682;2024-01-06T13:42:03;7.83;;;4.90;;
11024;SDS011;22890;51.820;8.682;2024-01-06T13:44:31;9.13;;;5.60;;
11024;SDS011;22890;51.820;8.682;2024-01-06T13:46:58;9.27;;;5.37;;
11024;SDS011;22890;51.820;8.682;2024-01-06T13:49:25;7.40;;;4.47;;
11024;SDS011;22890;51.820;8.682;2024-01-06T13:51:52;4.97;;;4.03;;
11024;SDS011;22890;51.820;8.682;2024-01-06T13:54:20;5.73;;;3.60;;
11024;SDS011;22890;51.820;8.682;2024-01-06T13:56:47;7.77;;;4.23;;
11024;SDS011;22890;51.820;8.682;2024-01-06T13:59:15;6.10;;;4.40;;
11024;SDS011;22890;51.820;8.682;2024-01-06T14:01:41;6.87;;;3.97;;
11024;SDS011;22890;51.820;8.682;2024-01-06T14:04:09;6.70;;;3.80;;
11024;SDS011;22890;51.820;8.682;2024-01-06T14:06:36;7.57;;;4.40;;
11024;SDS011;22890;51.820;8.682;2024-01-06T14:09:06;5.20;;;3.90;;
11024;SDS011;22890;51.820;8.682;2024-01-06T14:11:32;7.60;;;4.30;;
11024;SDS011;22890;51.820;8.682;2024-01-06T14:14:00;6.10;;;3.90;;
11024;SDS011;22890;51.820;8.682;2024-01-06T14:16:27;7.07;;;4.33;;
11024;SDS011;22890;51.820;8.682;2024-01-06T14:18:54;6.97;;;4.13;;
11024;SDS011;22890;51.820;8.682;2024-01-06T14:21:22;11.03;;;5.10;;
11024;SDS011;22890;51.820;8.682;2024-01-06T14:23:49;6.13;;;3.70;;
11024;SDS011;22890;51.820;8.682;2024-01-06T14:26:17;12.17;;;6.43;;
11024;SDS011;22890;51.820;8.682;2024-01-06T14:28:49;9.57;;;5.63;;
11024;SDS011;22890;51.820;8.682;2024-01-06T14:31:16;5.70;;;3.37;;
11024;SDS011;22890;51.820;8.682;2024-01-06T14:33:43;4.67;;;3.20;;
11024;SDS011;22890;51.820;8.682;2024-01-06T14:36:11;6.03;;;3.30;;
11024;SDS011;22890;51.820;8.682;2024-01-06T14:38:39;10.30;;;8.97;;
11024;SDS011;22890;51.820;8.682;2024-01-06T14:41:06;6.13;;;3.73;;